Time;durP1;ratioP1;P1;durP2;ratioP2;P2;SDS_P1;SDS_P2;PMS_P1;PMS_P2;Temp;Humidity;BMP_temperature;BMP_pressure;BME280_temperature;BME280_humidity;BME280_pressure;Samples;Min_cycle;Max_cycle;Signal;HPM_P1;HPM_P2
2024/03/17 00:00:25;;;;;;;10.17;6.27;;;;;7.50;101725.00;;;;9960005;29;20711;-82
2024/03/17 00:05:26;;;;;;;11.10;7.10;;;;;7.40;101716.00;;;;9995463;29;20724;-81
2024/03/17 00:10:27;;;;;;;9.27;7.13;;;;;7.30;101714.00;;;;9984608;29;20229;-80
2024/03/17 00:15:28;;;;;;;12.70;7.27;;;;;7.30;101713.00;;;;9973428;29;20247;-80
2024/03/17 00:20:30;;;;;;;10.70;8.03;;;;;7.20;101701.00;;;;9989444;29;20578;-81
2024/03/17 00:25:33;;;;;;;10.03;7.97;;;;;7.20;101706.00;;;;9974142;29;20229;-81
2024/03/17 00:30:36;;;;;;;11.03;7.33;;;;;7.20;101694.00;;;;9984201;29;20324;-80
2024/03/17 00:35:37;;;;;;;11.17;7.63;;;;;7.20;101685.00;;;;9961798;29;20245;-81
2024/03/17 00:40:44;;;;;;;11.67;7.90;;;;;7.30;101682.00;;;;9960903;29;20253;-81
2024/03/17 00:45:52;;;;;;;8.90;6.83;;;;;7.30;101674.00;;;;9958038;29;20321;-81
2024/03/17 00:50:56;;;;;;;9.77;7.60;;;;;7.20;101675.00;;;;9964826;29;20331;-81
2024/03/17 00:55:58;;;;;;;9.97;8.03;;;;;7.20;101694.00;;;;9978590;29;20269;-81
2024/03/17 01:00:59;;;;;;;12.43;8.67;;;;;7.20;101685.00;;;;9964081;29;20612;-78
2024/03/17 01:06:04;;;;;;;11.13;9.13;;;;;7.20;101680.00;;;;9991159;29;20659;-79
2024/03/17 01:11:08;;;;;;;13.60;8.53;;;;;7.20;101674.00;;;;9962716;29;20233;-78
2024/03/17 01:16:09;;;;;;;10.93;8.53;;;;;7.10;101687.00;;;;9949431;29;20269;-78
2024/03/17 01:21:11;;;;;;;12.70;9.27;;;;;7.10;101676.00;;;;9976090;29;20234;-77
2024/03/17 01:26:12;;;;;;;13.57;10.20;;;;;7.10;101672.00;;;;10003292;29;20261;-77
2024/03/17 01:31:16;;;;;;;14.20;9.77;;;;;7.00;101678.00;;;;9973770;29;20238;-78
2024/03/17 01:36:17;;;;;;;15.83;9.43;;;;;7.00;101678.00;;;;9975804;29;20237;-78
2024/03/17 01:41:18;;;;;;;15.30;10.13;;;;;7.00;101660.00;;;;9989706;29;20242;-79
2024/03/17 01:46:20;;;;;;;13.33;10.30;;;;;7.10;101653.00;;;;9967821;29;20266;-78
2024/03/17 01:51:22;;;;;;;14.53;10.03;;;;;7.20;101644.00;;;;9971328;29;20249;-77
2024/03/17 01:56:24;;;;;;;13.37;9.30;;;;;7.20;101642.00;;;;9969706;29;20274;-78
2024/03/17 02:01:25;;;;;;;12.80;10.10;;;;;7.20;101636.00;;;;9971083;29;20316;-78
2024/03/17 02:06:26;;;;;;;14.03;9.83;;;;;7.30;101635.00;;;;9950188;29;20229;-77
2024/03/17 02:11:32;;;;;;;12.10;8.80;;;;;7.30;101627.00;;;;9951383;29;20229;-81
2024/03/17 02:16:33;;;;;;;12.43;8.63;;;;;7.40;101627.00;;;;9991878;29;20237;-80
2024/03/17 02:21:34;;;;;;;14.27;8.47;;;;;7.50;101614.00;;;;10000830;29;20716;-81
2024/03/17 02:26:38;;;;;;;11.63;8.37;;;;;7.50;101600.00;;;;9941372;29;20230;-80
2024/03/17 02:31:39;;;;;;;13.47;7.40;;;;;7.60;101602.00;;;;9967434;29;20257;-81
2024/03/17 02:36:40;;;;;;;13.00;8.37;;;;;7.60;101594.00;;;;9986950;29;20321;-81
2024/03/17 02:41:45;;;;;;;13.70;7.37;;;;;7.70;101583.00;;;;9967144;29;20262;-81
2024/03/17 02:46:47;;;;;;;10.90;7.10;;;;;7.70;101576.00;;;;9986158;29;20324;-81
2024/03/17 02:51:48;;;;;;;16.17;8.13;;;;;7.70;101561.00;;;;9966272;29;20315;-80
2024/03/17 02:56:50;;;;;;;14.27;7.40;;;;;7.70;101557.00;;;;9972861;29;20250;-81
2024/03/17 03:01:51;;;;;;;11.90;7.60;;;;;7.70;101559.00;;;;9979186;29;20316;-80
2024/03/17 03:06:52;;;;;;;11.70;7.90;;;;;7.70;101561.00;;;;9982877;29;20286;-80
2024/03/17 03:11:53;;;;;;;11.93;7.53;;;;;7.70;101548.00;;;;9994346;29;20257;-81
2024/03/17 03:16:55;;;;;;;12.43;8.03;;;;;7.70;101542.00;;;;9954308;29;20688;-80
2024/03/17 03:21:56;;;;;;;12.67;8.30;;;;;7.70;101545.00;;;;9994354;29;21075;-79
2024/03/17 03:26:57;;;;;;;11.67;8.23;;;;;7.70;101544.00;;;;9964753;29;20321;-79
2024/03/17 03:31:58;;;;;;;16.33;8.00;;;;;7.70;101543.00;;;;9961843;29;20233;-78
2024/03/17 03:36:59;;;;;;;11.70;8.57;;;;;7.70;101535.00;;;;9963813;29;20241;-80
2024/03/17 03:42:01;;;;;;;13.03;7.63;;;;;7.70;101527.00;;;;9962599;29;20788;-79
2024/03/17 03:47:03;;;;;;;14.47;8.50;;;;;7.70;101522.00;;;;9963359;29;20241;-79
2024/03/17 03:52:05;;;;;;;10.93;7.00;;;;;7.70;101502.00;;;;9978575;29;20706;-81
2024/03/17 03:57:06;;;;;;;12.57;7.10;;;;;7.60;101497.00;;;;9963241;29;20227;-79
2024/03/17 04:02:07;;;;;;;11.10;7.43;;;;;7.60;101496.00;;;;9977204;29;20242;-79
2024/03/17 04:07:08;;;;;;;9.37;7.03;;;;;7.60;101495.00;;;;9993042;29;20234;-79
2024/03/17 04:12:09;;;;;;;10.87;7.50;;;;;7.50;101484.00;;;;10001614;29;20545;-80
2024/03/17 04:17:11;;;;;;;11.73;7.27;;;;;7.40;101488.00;;;;9966686;29;20306;-79
2024/03/17 04:22:12;;;;;;;10.10;6.90;;;;;7.30;101485.00;;;;9977317;29;20329;-80
2024/03/17 04:27:13;;;;;;;10.23;7.03;;;;;7.20;101480.00;;;;9974670;29;20229;-79
2024/03/17 04:32:14;;;;;;;11.03;7.33;;;;;7.20;101480.00;;;;9957913;29;20344;-81
2024/03/17 04:37:16;;;;;;;8.67;6.60;;;;;7.20;101490.00;;;;9969536;29;20316;-81
2024/03/17 04:42:19;;;;;;;11.50;6.40;;;;;7.10;101490.00;;;;9988207;29;20759;-81
2024/03/17 04:47:20;;;;;;;11.20;7.60;;;;;7.00;101484.00;;;;9984140;29;20296;-81
2024/03/17 04:52:21;;;;;;;11.67;7.33;;;;;6.90;101485.00;;;;9959300;29;20229;-81
2024/03/17 04:57:22;;;;;;;11.70;6.90;;;;;6.90;101487.00;;;;9955062;29;20260;-81
2024/03/17 05:02:23;;;;;;;12.63;7.80;;;;;6.90;101477.00;;;;9969853;29;20227;-81
2024/03/17 05:07:24;;;;;;;10.93;7.03;;;;;6.80;101485.00;;;;9989053;29;20267;-82
2024/03/17 05:12:26;;;;;;;16.17;7.70;;;;;6.80;101472.00;;;;9963289;29;20236;-82
2024/03/17 05:17:27;;;;;;;10.07;7.10;;;;;6.80;101483.00;;;;9985190;29;20317;-82
2024/03/17 05:22:28;;;;;;;12.13;8.40;;;;;6.80;101468.00;;;;9988619;29;20233;-81
2024/03/17 05:27:30;;;;;;;12.40;7.90;;;;;6.90;101465.00;;;;9970493;29;20233;-81
2024/03/17 05:32:31;;;;;;;14.13;8.10;;;;;7.00;101480.00;;;;9988843;29;20240;-81
2024/03/17 05:37:33;;;;;;;13.03;8.63;;;;;7.10;101484.00;;;;9980730;29;20291;-81
2024/03/17 05:42:34;;;;;;;12.03;8.60;;;;;7.20;101499.00;;;;9966671;29;20801;-78
2024/03/17 05:47:36;;;;;;;15.13;8.57;;;;;7.30;101484.00;;;;9974583;29;20232;-77
2024/03/17 05:52:37;;;;;;;12.33;8.10;;;;;7.40;101479.00;;;;9949355;29;20268;-80
2024/03/17 05:57:38;;;;;;;10.20;7.73;;;;;7.50;101484.00;;;;9956248;29;20237;-78
2024/03/17 06:02:39;;;;;;;14.97;8.00;;;;;7.60;101474.00;;;;9990178;29;20665;-78
2024/03/17 06:07:40;;;;;;;9.87;7.80;;;;;7.70;101467.00;;;;9979955;29;20266;-78
2024/03/17 06:12:41;;;;;;;10.90;7.77;;;;;7.90;101459.00;;;;9969245;29;20269;-80
2024/03/17 06:17:43;;;;;;;12.33;6.60;;;;;7.90;101460.00;;;;9950417;29;20348;-77
2024/03/17 06:22:45;;;;;;;11.80;7.37;;;;;7.90;101459.00;;;;9952549;29;20234;-78
2024/03/17 06:27:46;;;;;;;11.90;7.50;;;;;8.00;101458.00;;;;9964974;29;20279;-79
2024/03/17 06:32:48;;;;;;;13.40;7.50;;;;;8.20;101463.00;;;;9966033;29;20330;-79
2024/03/17 06:37:49;;;;;;;11.53;7.07;;;;;8.30;101453.00;;;;9974184;29;20234;-77
2024/03/17 06:42:50;;;;;;;10.63;7.60;;;;;8.50;101465.00;;;;9983644;29;20817;-79
2024/03/17 06:47:51;;;;;;;11.30;7.40;;;;;8.60;101466.00;;;;9963741;29;20312;-77
2024/03/17 06:52:52;;;;;;;10.67;7.37;;;;;8.70;101464.00;;;;10008845;29;20244;-78
2024/03/17 06:57:53;;;;;;;11.63;7.67;;;;;8.90;101453.00;;;;9978114;29;20233;-79
2024/03/17 07:02:54;;;;;;;9.43;7.10;;;;;9.10;101448.00;;;;9983098;29;21925;-80
2024/03/17 07:07:56;;;;;;;10.03;7.40;;;;;9.20;101440.00;;;;9954284;29;20257;-77
2024/03/17 07:12:57;;;;;;;11.33;7.20;;;;;9.30;101460.00;;;;9975171;29;20366;-79
2024/03/17 07:17:58;;;;;;;10.53;7.03;;;;;9.40;101446.00;;;;9987116;29;20264;-78
2024/03/17 07:22:59;;;;;;;7.97;6.23;;;;;9.50;101445.00;;;;9960552;29;20600;-79
2024/03/17 07:28:00;;;;;;;9.93;6.87;;;;;9.40;101453.00;;;;9970000;29;20449;-78
2024/03/17 07:33:02;;;;;;;11.23;6.43;;;;;9.50;101465.00;;;;9987266;29;20268;-79
2024/03/17 07:38:03;;;;;;;10.73;6.33;;;;;9.50;101460.00;;;;9990868;29;20818;-78
2024/03/17 07:43:04;;;;;;;12.50;6.67;;;;;9.60;101469.00;;;;9949456;29;20328;-79
2024/03/17 07:48:06;;;;;;;9.97;5.50;;;;;9.80;101475.00;;;;9977116;29;20248;-78
2024/03/17 07:53:07;;;;;;;8.27;5.67;;;;;10.20;101470.00;;;;9959751;29;20225;-78
2024/03/17 07:58:08;;;;;;;8.80;5.40;;;;;10.70;101471.00;;;;9962813;29;20243;-79
2024/03/17 08:03:09;;;;;;;6.60;4.47;;;;;11.20;101463.00;;;;9957858;29;20283;-79
2024/03/17 08:08:11;;;;;;;8.23;5.60;;;;;11.70;101464.00;;;;9977214;29;20350;-79
2024/03/17 08:13:15;;;;;;;8.37;5.63;;;;;11.90;101462.00;;;;9942420;29;20257;-79
2024/03/17 08:18:16;;;;;;;7.20;4.67;;;;;12.10;101459.00;;;;9974628;29;20245;-79
2024/03/17 08:23:18;;;;;;;7.77;4.97;;;;;12.50;101450.00;;;;9939279;29;20249;-79
2024/03/17 08:28:19;;;;;;;11.33;4.37;;;;;12.70;101445.00;;;;9975941;29;20263;-78
2024/03/17 08:33:22;;;;;;;7.70;4.57;;;;;13.00;101449.00;;;;9976501;29;20238;-79
2024/03/17 08:38:24;;;;;;;7.57;3.43;;;;;13.10;101448.00;;;;9976442;29;20230;-78
2024/03/17 08:43:26;;;;;;;8.13;3.53;;;;;12.90;101450.00;;;;9978639;29;20229;-79
2024/03/17 08:48:28;;;;;;;9.07;3.83;;;;;12.80;101447.00;;;;9964045;29;20335;-79
2024/03/17 08:53:30;;;;;;;5.97;3.40;;;;;12.60;101438.00;;;;9966850;29;20666;-81
2024/03/17 08:58:31;;;;;;;6.20;3.30;;;;;12.60;101452.00;;;;9990823;29;20237;-79
2024/03/17 09:03:36;;;;;;;7.47;3.67;;;;;12.70;101453.00;;;;9975920;29;20320;-79
2024/03/17 09:08:37;;;;;;;5.00;3.10;;;;;12.70;101456.00;;;;9982627;29;20839;-81
2024/03/17 09:13:39;;;;;;;6.63;3.13;;;;;12.90;101463.00;;;;9968688;29;20252;-81
2024/03/17 09:18:40;;;;;;;7.87;3.20;;;;;13.10;101456.00;;;;9982200;29;20260;-81
2024/03/17 09:23:45;;;;;;;5.30;2.80;;;;;13.40;101451.00;;;;9948464;29;20309;-81
2024/03/17 09:28:46;;;;;;;5.33;2.90;;;;;13.40;101461.00;;;;9951754;29;20313;-82
2024/03/17 09:33:47;;;;;;;5.00;2.80;;;;;13.60;101449.00;;;;9975040;29;20846;-81
2024/03/17 09:38:48;;;;;;;4.53;2.90;;;;;13.70;101444.00;;;;9990414;29;20383;-81
2024/03/17 09:43:53;;;;;;;5.97;2.80;;;;;13.90;101447.00;;;;10008188;29;20232;-81
2024/03/17 09:48:54;;;;;;;5.70;3.10;;;;;13.90;101437.00;;;;10032805;29;20232;-81
2024/03/17 09:53:59;;;;;;;5.68;2.88;;;;;13.80;101426.00;;;;9968635;29;20288;-81
2024/03/17 09:59:03;;;;;;;5.18;2.80;;;;;13.60;101440.00;;;;9988225;29;20245;-81
2024/03/17 10:04:04;;;;;;;6.45;2.70;;;;;13.50;101432.00;;;;9982249;29;20226;-81
2024/03/17 10:09:20;;;;;;;4.87;2.53;;;;;13.40;101442.00;;;;9962564;29;20295;-82
2024/03/17 10:14:21;;;;;;;6.13;3.00;;;;;13.20;101446.00;;;;9969026;29;20240;-81
2024/03/17 10:19:25;;;;;;;6.18;2.80;;;;;13.10;101436.00;;;;9977604;29;20245;-80
2024/03/17 10:24:31;;;;;;;6.60;2.60;;;;;13.00;101444.00;;;;9976506;29;20233;-79
2024/03/17 10:29:35;;;;;;;4.57;2.80;;;;;13.50;101438.00;;;;9959317;29;20226;-79
2024/03/17 10:34:37;;;;;;;8.25;2.83;;;;;13.60;101436.00;;;;9951156;29;20250;-79
2024/03/17 10:39:40;;;;;;;7.43;2.85;;;;;13.90;101430.00;;;;9978757;29;20241;-78
2024/03/17 10:44:45;;;;;;;8.25;2.80;;;;;14.10;101433.00;;;;9975057;29;20264;-78
2024/03/17 10:49:46;;;;;;;4.68;2.90;;;;;14.10;101422.00;;;;9963782;29;20233;-79
2024/03/17 10:54:50;;;;;;;6.32;2.78;;;;;14.10;101422.00;;;;9992055;29;20229;-78
2024/03/17 10:59:52;;;;;;;7.93;2.65;;;;;14.00;101409.00;;;;9977781;29;20764;-78
2024/03/17 11:04:57;;;;;;;7.75;2.53;;;;;14.00;101410.00;;;;9980471;29;20241;-78
2024/03/17 11:09:59;;;;;;;5.60;2.40;;;;;14.20;101405.00;;;;9956184;29;20226;-79
2024/03/17 11:15:37;;;;;;;6.65;2.72;;;;;14.60;101403.00;;;;9967420;29;20277;-79
2024/03/17 11:21:20;;;;;;;6.50;2.75;;;;;14.80;101398.00;;;;9939678;29;20259;-79
2024/03/17 11:26:30;;;;;;;4.45;2.63;;;;;15.30;101386.00;;;;9967428;29;20228;-80
2024/03/17 11:31:43;;;;;;;7.68;3.10;;;;;16.00;101381.00;;;;9987911;29;20225;-81
2024/03/17 11:36:45;;;;;;;5.35;2.33;;;;;16.90;101366.00;;;;9982495;29;20319;-81
2024/03/17 11:41:47;;;;;;;6.22;2.45;;;;;17.20;101371.00;;;;9975516;29;20355;-79
2024/03/17 11:46:52;;;;;;;4.97;2.47;;;;;17.40;101368.00;;;;9941632;29;20309;-80
2024/03/17 11:52:12;;;;;;;5.00;2.00;;;;;17.70;101363.00;;;;9964587;29;20244;-81
2024/03/17 11:57:24;;;;;;;5.10;2.38;;;;;18.00;101355.00;;;;9942872;29;20229;-81
2024/03/17 12:02:31;;;;;;;4.30;2.53;;;;;19.00;101359.00;;;;9962570;29;20813;-79
2024/03/17 12:07:33;;;;;;;5.30;2.20;;;;;18.90;101356.00;;;;9982409;29;20285;-80
2024/03/17 12:12:35;;;;;;;6.18;1.80;;;;;19.00;101349.00;;;;9952210;29;20306;-80
2024/03/17 12:17:36;;;;;;;3.85;1.85;;;;;18.80;101339.00;;;;9958024;29;20234;-82
2024/03/17 12:22:39;;;;;;;5.78;1.95;;;;;18.90;101326.00;;;;9969426;29;20229;-81
2024/03/17 12:27:44;;;;;;;5.18;1.65;;;;;19.00;101321.00;;;;9976742;29;20332;-80
2024/03/17 12:32:46;;;;;;;5.68;2.50;;;;;19.30;101313.00;;;;10008120;29;20250;-81
2024/03/17 12:37:48;;;;;;;4.72;1.70;;;;;18.90;101310.00;;;;9974744;29;20233;-81
2024/03/17 12:42:50;;;;;;;4.22;1.50;;;;;19.20;101300.00;;;;9957469;29;20254;-81
2024/03/17 12:47:52;;;;;;;3.13;1.80;;;;;19.10;101300.00;;;;9986504;29;20693;-82
2024/03/17 12:52:58;;;;;;;4.80;2.15;;;;;18.90;101286.00;;;;9986521;29;20325;-82
2024/03/17 13:03:26;;;;;;;3.58;2.20;;;;;18.60;101277.00;;;;9985489;29;20701;-82
2024/03/17 13:08:28;;;;;;;4.53;1.90;;;;;18.10;101279.00;;;;9955869;29;20238;-81
2024/03/17 13:13:29;;;;;;;6.38;2.72;;;;;18.00;101276.00;;;;9967042;29;20253;-81
2024/03/17 13:18:30;;;;;;;5.55;1.95;;;;;17.80;101270.00;;;;9950549;29;20229;-82
2024/03/17 13:23:32;;;;;;;5.35;1.80;;;;;17.50;101261.00;;;;9958496;29;20261;-82
2024/03/17 13:28:33;;;;;;;4.90;1.70;;;;;17.00;101258.00;;;;9960723;29;20245;-82
2024/03/17 13:33:34;;;;;;;2.67;1.73;;;;;16.20;101253.00;;;;9973539;29;20245;-82
2024/03/17 13:38:35;;;;;;;4.80;1.63;;;;;16.00;101244.00;;;;9956811;29;20327;-82
2024/03/17 13:43:36;;;;;;;3.28;1.95;;;;;15.90;101243.00;;;;9948338;29;20241;-83
2024/03/17 13:48:38;;;;;;;4.00;1.77;;;;;16.20;101236.00;;;;9975038;29;20592;-79
2024/03/17 13:53:39;;;;;;;7.35;2.50;;;;;16.30;101242.00;;;;9971454;29;20317;-79
2024/03/17 13:58:40;;;;;;;6.25;1.52;;;;;16.20;101239.00;;;;9980156;29;20236;-80
2024/03/17 14:03:43;;;;;;;3.38;1.58;;;;;16.30;101227.00;;;;10001464;29;20261;-80
2024/03/17 14:08:44;;;;;;;4.28;1.40;;;;;16.30;101232.00;;;;9987119;29;20238;-80
2024/03/17 14:13:45;;;;;;;5.45;1.77;;;;;16.10;101233.00;;;;9960779;29;20683;-81
2024/03/17 14:18:46;;;;;;;5.05;1.80;;;;;15.80;101229.00;;;;9970179;29;20260;-80
2024/03/17 14:23:47;;;;;;;4.15;2.20;;;;;15.80;101221.00;;;;9994691;29;20719;-81
2024/03/17 14:28:54;;;;;;;5.32;1.85;;;;;15.90;101217.00;;;;9968789;29;20234;-79
2024/03/17 14:33:55;;;;;;;8.45;2.22;;;;;15.60;101223.00;;;;9953863;29;20225;-80
2024/03/17 14:38:56;;;;;;;4.70;2.00;;;;;15.20;101218.00;;;;9950568;29;20260;-79
2024/03/17 14:44:00;;;;;;;4.93;1.52;;;;;15.30;101217.00;;;;9970127;29;20276;-78
2024/03/17 14:49:01;;;;;;;3.90;1.42;;;;;15.40;101210.00;;;;9974559;29;20237;-80
2024/03/17 14:54:03;;;;;;;3.67;1.55;;;;;15.00;101202.00;;;;9966841;29;20584;-79
2024/03/17 14:59:05;;;;;;;7.07;1.63;;;;;15.00;101199.00;;;;9961940;29;20245;-82
2024/03/17 15:04:06;;;;;;;2.88;1.65;;;;;15.40;101194.00;;;;9980118;29;20237;-80
2024/03/17 15:09:08;;;;;;;5.97;2.13;;;;;15.60;101194.00;;;;9957787;29;20884;-81
2024/03/17 15:14:10;;;;;;;4.93;2.00;;;;;15.40;101178.00;;;;9961423;29;20225;-81
2024/03/17 15:19:12;;;;;;;5.07;1.90;;;;;15.40;101178.00;;;;9965286;29;20230;-81
2024/03/17 15:24:13;;;;;;;6.40;1.73;;;;;15.40;101174.00;;;;9970353;29;20230;-80
2024/03/17 15:29:15;;;;;;;4.43;1.73;;;;;15.30;101177.00;;;;9989606;29;20237;-81
2024/03/17 15:34:17;;;;;;;5.57;1.50;;;;;15.10;101182.00;;;;9977436;29;20225;-82
2024/03/17 15:39:18;;;;;;;3.75;1.45;;;;;14.90;101172.00;;;;9994681;29;20832;-81
2024/03/17 15:44:20;;;;;;;3.60;1.30;;;;;14.60;101179.00;;;;9953464;29;20286;-82
2024/03/17 15:49:22;;;;;;;2.92;1.35;;;;;14.30;101174.00;;;;9973250;29;20237;-82
2024/03/17 15:54:23;;;;;;;4.38;1.70;;;;;14.10;101174.00;;;;9973169;29;20700;-82
2024/03/17 15:59:25;;;;;;;4.88;1.58;;;;;14.00;101176.00;;;;9964733;29;20236;-81
2024/03/17 16:04:26;;;;;;;5.53;1.98;;;;;13.70;101174.00;;;;9963859;29;20253;-80
2024/03/17 16:09:28;;;;;;;6.97;1.83;;;;;13.50;101175.00;;;;9962689;29;20726;-81
2024/03/17 16:14:29;;;;;;;5.00;2.03;;;;;13.40;101176.00;;;;9962522;29;20241;-80
2024/03/17 16:19:32;;;;;;;5.40;1.98;;;;;13.30;101172.00;;;;9961496;29;20226;-80
2024/03/17 16:24:35;;;;;;;3.08;1.65;;;;;13.30;101175.00;;;;9956564;29;20293;-79
2024/03/17 16:29:39;;;;;;;3.83;2.00;;;;;13.40;101172.00;;;;9949842;29;20324;-79
2024/03/17 16:34:41;;;;;;;3.53;1.45;;;;;13.40;101164.00;;;;9945724;29;20644;-79
2024/03/17 16:39:42;;;;;;;2.63;1.65;;;;;13.30;101151.00;;;;9975676;29;20233;-80
2024/03/17 16:44:52;;;;;;;6.80;2.10;;;;;13.20;101151.00;;;;9979512;29;20233;-82
2024/03/17 16:49:55;;;;;;;2.67;1.60;;;;;13.20;101155.00;;;;9957779;29;20264;-80
2024/03/17 16:54:57;;;;;;;3.38;1.42;;;;;13.20;101153.00;;;;9949635;29;20229;-80
2024/03/17 16:59:58;;;;;;;3.95;1.73;;;;;13.10;101146.00;;;;9974873;29;20232;-79
2024/03/17 17:04:59;;;;;;;4.93;1.60;;;;;13.00;101146.00;;;;9981497;29;20225;-78
2024/03/17 17:10:01;;;;;;;3.72;1.40;;;;;12.90;101140.00;;;;9966298;29;20782;-79
2024/03/17 17:15:02;;;;;;;7.72;1.45;;;;;12.80;101142.00;;;;9964142;29;20672;-79
2024/03/17 17:20:05;;;;;;;3.05;1.75;;;;;12.70;101138.00;;;;9967270;29;20291;-81
2024/03/17 17:25:07;;;;;;;4.80;1.80;;;;;12.50;101150.00;;;;9988031;29;20273;-81
2024/03/17 17:30:08;;;;;;;6.00;1.97;;;;;12.30;101156.00;;;;9985470;29;20233;-80
2024/03/17 17:35:10;;;;;;;7.80;2.07;;;;;12.20;101150.00;;;;9965818;29;20840;-81
2024/03/17 17:40:11;;;;;;;3.47;1.93;;;;;12.10;101141.00;;;;9968041;29;20712;-81
2024/03/17 17:45:13;;;;;;;7.57;2.33;;;;;12.00;101123.00;;;;9949815;29;20251;-82
2024/03/17 17:50:14;;;;;;;5.00;2.03;;;;;11.90;101126.00;;;;9963394;29;20242;-81
2024/03/17 17:55:16;;;;;;;5.50;2.20;;;;;11.80;101114.00;;;;9967238;29;20226;-81
2024/03/17 18:00:17;;;;;;;4.63;2.47;;;;;11.80;101110.00;;;;9957248;29;20241;-81
2024/03/17 18:05:21;;;;;;;10.73;3.00;;;;;11.70;101102.00;;;;9964981;29;20269;-81
2024/03/17 18:10:22;;;;;;;4.03;2.13;;;;;11.70;101099.00;;;;9972158;29;20260;-80
2024/03/17 18:15:25;;;;;;;8.00;2.60;;;;;11.70;101095.00;;;;10004888;29;20319;-80
2024/03/17 18:20:27;;;;;;;5.73;2.70;;;;;11.70;101093.00;;;;9970282;29;20240;-84
2024/03/17 18:25:32;;;;;;;4.87;2.43;;;;;11.60;101092.00;;;;9995640;29;20226;-81
2024/03/17 18:30:36;;;;;;;7.83;2.53;;;;;11.60;101089.00;;;;9958371;29;20241;-84
2024/03/17 18:35:37;;;;;;;4.90;2.77;;;;;11.60;101086.00;;;;9965905;29;20720;-83
2024/03/17 18:40:38;;;;;;;4.70;2.60;;;;;11.60;101090.00;;;;9965228;29;20237;-84
2024/03/17 18:45:39;;;;;;;3.00;2.37;;;;;11.60;101108.00;;;;9991598;29;20268;-84
2024/03/17 18:50:40;;;;;;;5.50;2.60;;;;;11.50;101090.00;;;;9970508;29;20234;-84
2024/03/17 18:55:42;;;;;;;6.17;2.30;;;;;11.50;101096.00;;;;9954489;29;20348;-84
2024/03/17 19:00:51;;;;;;;6.33;2.90;;;;;11.50;101083.00;;;;9963791;29;20218;-85
2024/03/17 19:05:54;;;;;;;4.27;2.90;;;;;11.50;101090.00;;;;9951143;29;20229;-85
2024/03/17 19:10:56;;;;;;;4.60;3.27;;;;;11.50;101100.00;;;;9947732;29;20259;-84
2024/03/17 19:16:02;;;;;;;5.27;3.83;;;;;11.50;101102.00;;;;9955482;29;20229;-84
2024/03/17 19:21:05;;;;;;;4.77;2.90;;;;;11.50;101093.00;;;;9964189;29;20740;-84
2024/03/17 19:26:11;;;;;;;6.20;3.03;;;;;11.50;101094.00;;;;9996164;29;20236;-85
2024/03/17 19:31:12;;;;;;;5.97;3.40;;;;;11.40;101083.00;;;;9967246;29;20600;-86
2024/03/17 19:36:13;;;;;;;5.97;3.47;;;;;11.40;101092.00;;;;9967769;29;20232;-85
2024/03/17 19:41:15;;;;;;;5.27;3.77;;;;;11.40;101090.00;;;;9952242;29;20309;-83
2024/03/17 19:46:20;;;;;;;5.33;3.53;;;;;11.40;101093.00;;;;9966913;29;20836;-80
2024/03/17 19:51:30;;;;;;;3.90;3.17;;;;;11.40;101086.00;;;;9993579;29;20242;-81
2024/03/17 19:56:32;;;;;;;4.23;3.83;;;;;11.40;101090.00;;;;9995113;29;20329;-81
2024/03/17 20:01:34;;;;;;;6.77;3.80;;;;;11.40;101094.00;;;;9949069;29;20237;-83
2024/03/17 20:06:35;;;;;;;4.73;3.70;;;;;11.40;101088.00;;;;9951507;29;20260;-83
2024/03/17 20:11:37;;;;;;;5.97;3.80;;;;;11.40;101081.00;;;;9943740;29;20241;-82
2024/03/17 20:16:38;;;;;;;5.07;3.80;;;;;11.50;101079.00;;;;9984417;29;20244;-81
2024/03/17 20:21:39;;;;;;;4.50;4.10;;;;;11.50;101083.00;;;;9959763;29;20270;-84
2024/03/17 20:26:40;;;;;;;5.00;4.47;;;;;11.50;101081.00;;;;9960477;29;20286;-82
2024/03/17 20:31:41;;;;;;;7.40;4.70;;;;;11.40;101077.00;;;;9982114;29;20248;-82
2024/03/17 20:36:43;;;;;;;6.50;5.57;;;;;11.40;101078.00;;;;9965825;29;20233;-81
2024/03/17 20:41:44;;;;;;;5.40;4.80;;;;;11.50;101081.00;;;;9969859;29;20311;-81
2024/03/17 20:46:45;;;;;;;5.63;5.07;;;;;11.50;101080.00;;;;9958476;29;20576;-81
2024/03/17 20:51:46;;;;;;;7.07;5.70;;;;;11.50;101079.00;;;;9946628;29;20233;-82
2024/03/17 20:56:52;;;;;;;6.20;5.53;;;;;11.50;101082.00;;;;9941078;29;20242;-81
2024/03/17 21:01:53;;;;;;;6.90;6.27;;;;;11.50;101081.00;;;;9945847;29;20377;-81
2024/03/17 21:06:54;;;;;;;8.53;7.07;;;;;11.60;101081.00;;;;9964415;29;20229;-82
2024/03/17 21:11:56;;;;;;;7.30;6.60;;;;;11.60;101089.00;;;;9988439;29;20232;-79
2024/03/17 21:16:57;;;;;;;8.80;7.97;;;;;11.70;101083.00;;;;9958746;29;20238;-81
2024/03/17 21:21:59;;;;;;;11.67;8.67;;;;;11.70;101087.00;;;;9978821;29;20268;-81
2024/03/17 21:27:15;;;;;;;10.20;8.97;;;;;11.70;101088.00;;;;9981999;29;20236;-82
2024/03/17 21:32:17;;;;;;;9.97;8.77;;;;;11.70;101084.00;;;;9985213;29;20245;-81
2024/03/17 21:37:18;;;;;;;9.93;8.17;;;;;11.70;101065.00;;;;9962739;29;20233;-81
2024/03/17 21:42:19;;;;;;;8.53;7.50;;;;;11.60;101080.00;;;;9963366;29;20812;-82
2024/03/17 21:47:20;;;;;;;9.00;7.13;;;;;11.50;101068.00;;;;9963448;29;20242;-82
2024/03/17 21:52:22;;;;;;;8.23;7.17;;;;;11.50;101054.00;;;;9964279;29;20233;-82
2024/03/17 21:57:23;;;;;;;8.30;7.00;;;;;11.40;101058.00;;;;9952924;29;20362;-81
2024/03/17 22:02:24;;;;;;;8.33;7.33;;;;;11.30;101047.00;;;;9984965;29;20585;-80
2024/03/17 22:07:25;;;;;;;8.87;7.93;;;;;11.20;101046.00;;;;9993307;29;20226;-79
2024/03/17 22:12:27;;;;;;;11.30;7.80;;;;;11.10;101046.00;;;;9966464;29;20707;-80
2024/03/17 22:17:28;;;;;;;11.20;7.87;;;;;11.00;101040.00;;;;9966824;29;20234;-79
2024/03/17 22:22:29;;;;;;;10.47;8.23;;;;;11.00;101038.00;;;;9961977;29;20630;-80
2024/03/17 22:27:30;;;;;;;10.33;9.23;;;;;10.90;101040.00;;;;9964941;29;20245;-80
2024/03/17 22:32:31;;;;;;;12.37;8.77;;;;;10.90;101038.00;;;;9965421;29;20240;-79
2024/03/17 22:37:32;;;;;;;13.27;9.33;;;;;10.80;101035.00;;;;9965767;29;20324;-79
2024/03/17 22:42:33;;;;;;;12.20;9.37;;;;;10.80;101031.00;;;;9949341;29;20371;-79
2024/03/17 22:47:35;;;;;;;11.17;9.97;;;;;10.70;101035.00;;;;9951339;29;20268;-83
2024/03/17 22:52:36;;;;;;;13.70;11.53;;;;;10.60;101029.00;;;;9984317;29;20245;-79
2024/03/17 22:57:37;;;;;;;12.90;10.53;;;;;10.50;101029.00;;;;9965584;29;20242;-80
2024/03/17 23:02:38;;;;;;;14.80;10.90;;;;;10.50;101021.00;;;;9966853;29;20237;-78
2024/03/17 23:07:39;;;;;;;12.23;11.03;;;;;10.40;101016.00;;;;9944648;29;20604;-80
2024/03/17 23:12:40;;;;;;;12.57;11.27;;;;;10.40;101018.00;;;;9962106;29;20325;-79
2024/03/17 23:17:41;;;;;;;16.43;13.47;;;;;10.40;101017.00;;;;9975038;29;20774;-80
2024/03/17 23:22:48;;;;;;;14.87;12.77;;;;;10.40;101010.00;;;;9961269;29;20245;-79
2024/03/17 23:27:50;;;;;;;14.23;12.73;;;;;10.40;101005.00;;;;9974887;29;20312;-80
2024/03/17 23:32:51;;;;;;;14.33;12.70;;;;;10.40;101016.00;;;;9975603;29;20237;-80
2024/03/17 23:37:54;;;;;;;17.07;13.77;;;;;10.40;101013.00;;;;9972633;29;20233;-80
2024/03/17 23:42:55;;;;;;;18.13;14.70;;;;;10.40;101007.00;;;;9979861;29;20737;-79
2024/03/17 23:47:56;;;;;;;19.67;14.50;;;;;10.30;101006.00;;;;9957911;29;20249;-79
2024/03/17 23:52:58;;;;;;;16.93;13.50;;;;;10.20;101015.00;;;;9946749;29;20241;-80
2024/03/17 23:57:59;;;;;;;16.57;13.70;;;;;10.00;101017.00;;;;9967648;29;20225;-80
